Time;durP1;ratioP1;P1;durP2;ratioP2;P2;SDS_P1;SDS_P2;PMS_P1;PMS_P2;Temp;Humidity;BMP_temperature;BMP_pressure;BME280_temperature;BME280_humidity;BME280_pressure;Samples;Min_cycle;Max_cycle;Signal;HPM_P1;HPM_P2
2022/03/13 00:00:29;;;;;;;2.55;0.90;;;22.70;99.90;;;;;;5068741;28;20461;-82
2022/03/13 00:02:56;;;;;;;3.78;1.10;;;22.80;99.90;;;;;;5074426;28;20379;-86
2022/03/13 00:05:24;;;;;;;3.88;1.00;;;22.50;99.90;;;;;;5077333;28;20730;-87
2022/03/13 00:07:54;;;;;;;4.68;1.10;;;22.80;99.90;;;;;;5076346;28;20784;-90
2022/03/13 00:10:27;;;;;;;5.82;1.10;;;22.90;99.90;;;;;;5073440;28;20389;-79
2022/03/13 00:12:55;;;;;;;4.53;1.10;;;22.70;99.90;;;;;;5078583;28;20370;-80
2022/03/13 00:15:38;;;;;;;6.45;1.30;;;23.10;99.90;;;;;;5084005;28;20917;-78
2022/03/13 00:18:05;;;;;;;4.72;1.00;;;23.70;99.90;;;;;;5078007;28;20412;-92
2022/03/13 00:20:33;;;;;;;5.28;1.27;;;24.70;99.90;;;;;;5077988;28;20412;-77
2022/03/13 00:23:00;;;;;;;6.40;1.23;;;25.30;99.90;;;;;;5078119;28;20378;-82
2022/03/13 00:25:27;;;;;;;7.87;1.40;;;25.60;98.70;;;;;;5069022;28;20727;-93
2022/03/13 00:27:54;;;;;;;5.20;1.38;;;25.40;99.10;;;;;;5049810;28;20811;-84
2022/03/13 00:30:21;;;;;;;4.90;1.17;;;25.50;99.20;;;;;;5069782;28;20461;-78
2022/03/13 00:32:48;;;;;;;5.13;1.00;;;25.50;97.60;;;;;;5072808;28;20494;-88
2022/03/13 00:35:15;;;;;;;3.63;1.08;;;26.20;93.30;;;;;;5071414;28;20374;-94
2022/03/13 00:37:42;;;;;;;3.50;0.90;;;26.60;92.80;;;;;;5067937;28;20762;-83
2022/03/13 00:40:12;;;;;;;5.85;1.00;;;26.00;91.90;;;;;;5069561;28;20374;-88
2022/03/13 00:42:39;;;;;;;2.73;1.03;;;26.00;91.10;;;;;;5066252;28;20454;-90
2022/03/13 00:45:07;;;;;;;3.97;1.05;;;25.70;92.50;;;;;;5066350;28;20382;-77
2022/03/13 00:47:34;;;;;;;6.63;1.15;;;25.10;94.20;;;;;;5068095;28;20866;-87
2022/03/13 00:50:01;;;;;;;4.65;1.00;;;24.90;95.90;;;;;;5048789;28;20391;-85
2022/03/13 00:52:28;;;;;;;4.15;0.95;;;24.70;94.20;;;;;;5047979;28;20395;-84
2022/03/13 00:54:54;;;;;;;4.10;1.00;;;24.50;94.70;;;;;;5047107;28;20382;-89
2022/03/13 00:57:21;;;;;;;3.58;1.10;;;24.30;95.70;;;;;;5031079;28;20483;-93
2022/03/13 00:59:48;;;;;;;9.07;1.48;;;24.50;97.00;;;;;;5051885;28;20399;-80
2022/03/13 01:02:16;;;;;;;4.95;1.13;;;25.00;95.90;;;;;;5056803;28;20386;-90
2022/03/13 01:04:42;;;;;;;4.88;1.13;;;25.20;94.00;;;;;;5067329;28;20366;-91
2022/03/13 01:07:09;;;;;;;4.03;1.20;;;25.30;92.90;;;;;;5067283;28;20382;-88
2022/03/13 01:09:37;;;;;;;3.47;1.20;;;25.10;94.10;;;;;;5066561;28;20446;-86
2022/03/13 01:12:05;;;;;;;4.40;1.27;;;25.00;93.90;;;;;;5068207;28;20378;-79
2022/03/13 01:14:32;;;;;;;3.03;1.10;;;25.00;95.50;;;;;;5073284;28;20672;-92
2022/03/13 01:17:06;;;;;;;4.38;1.10;;;25.30;94.60;;;;;;5072804;28;20398;-92
2022/03/13 01:19:33;;;;;;;3.03;1.30;;;25.50;93.30;;;;;;5072937;28;20376;-91
2022/03/13 01:22:00;;;;;;;4.15;1.30;;;25.40;90.90;;;;;;5072537;28;20892;-85
2022/03/13 01:24:43;;;;;;;3.42;1.10;;;25.30;93.00;;;;;;5072299;28;20489;-92
2022/03/13 01:27:15;;;;;;;3.63;1.50;;;25.40;93.60;;;;;;5071691;28;20374;-89
2022/03/13 01:29:44;;;;;;;3.83;1.42;;;26.00;93.50;;;;;;5055632;28;20413;-88
2022/03/13 01:32:13;;;;;;;4.72;1.40;;;26.70;92.30;;;;;;5071073;28;20378;-81
2022/03/13 01:34:48;;;;;;;5.28;1.40;;;26.60;90.40;;;;;;5070893;28;20370;-92
2022/03/13 01:37:30;;;;;;;5.77;1.37;;;26.80;89.00;;;;;;5070718;28;20539;-91
2022/03/13 01:39:59;;;;;;;4.78;1.40;;;27.20;86.40;;;;;;5071678;28;20374;-86
2022/03/13 01:42:27;;;;;;;3.83;1.33;;;27.00;88.20;;;;;;5064623;28;20403;-87
2022/03/13 01:44:54;;;;;;;5.82;1.70;;;26.90;85.30;;;;;;5051822;28;20421;-90
2022/03/13 01:47:23;;;;;;;4.25;1.88;;;27.40;80.40;;;;;;5059210;28;20473;-80
2022/03/13 01:49:51;;;;;;;4.80;2.07;;;26.30;86.10;;;;;;5070001;28;20394;-91
2022/03/13 01:52:28;;;;;;;5.22;1.70;;;25.00;91.10;;;;;;5071069;28;20401;-90
2022/03/13 01:54:57;;;;;;;4.93;1.60;;;24.60;92.00;;;;;;5068813;28;20386;-90
2022/03/13 01:57:25;;;;;;;4.97;1.80;;;24.30;92.80;;;;;;5075046;28;20411;-79
2022/03/13 01:59:56;;;;;;;4.93;1.88;;;24.10;93.90;;;;;;5073634;28;20382;-92
2022/03/13 02:02:25;;;;;;;5.10;2.10;;;24.10;93.20;;;;;;5070784;28;20378;-79
2022/03/13 02:04:57;;;;;;;3.83;1.63;;;24.10;94.00;;;;;;5072000;28;20485;-85
2022/03/13 02:07:26;;;;;;;8.05;1.98;;;24.30;93.50;;;;;;5069299;28;20436;-89
2022/03/13 02:09:54;;;;;;;5.30;1.67;;;24.50;92.90;;;;;;5050462;28;20371;-94
2022/03/13 02:12:34;;;;;;;4.70;1.60;;;24.30;94.30;;;;;;5049306;28;20382;-89
2022/03/13 02:15:01;;;;;;;2.53;1.47;;;24.40;93.90;;;;;;5031134;28;20392;-80
2022/03/13 02:17:34;;;;;;;4.83;1.53;;;24.70;93.50;;;;;;5048225;28;20465;-81
2022/03/13 02:20:03;;;;;;;6.15;1.60;;;24.90;93.00;;;;;;5048711;28;20379;-89
2022/03/13 02:22:31;;;;;;;5.53;1.10;;;25.00;92.60;;;;;;5053134;28;20404;-86
2022/03/13 02:24:59;;;;;;;3.38;1.00;;;25.10;92.60;;;;;;5051818;28;20371;-85
2022/03/13 02:27:29;;;;;;;4.30;1.05;;;25.00;93.40;;;;;;5068862;28;20379;-89
2022/03/13 02:29:56;;;;;;;3.67;0.97;;;24.90;93.20;;;;;;5049672;28;20402;-89
2022/03/13 02:32:23;;;;;;;3.60;0.93;;;24.90;93.20;;;;;;5052911;28;20380;-81
2022/03/13 02:34:50;;;;;;;4.20;1.00;;;24.90;92.80;;;;;;5073135;28;20402;-78
2022/03/13 02:37:40;;;;;;;5.20;1.30;;;25.00;93.20;;;;;;5087856;28;20456;-87
2022/03/13 02:40:13;;;;;;;4.35;0.98;;;25.00;92.70;;;;;;5074811;28;20366;-90
2022/03/13 02:42:40;;;;;;;5.63;1.30;;;25.10;92.50;;;;;;5071021;28;20413;-87
2022/03/13 02:45:07;;;;;;;3.83;1.10;;;25.20;92.60;;;;;;5070560;28;20718;-86
2022/03/13 02:47:34;;;;;;;2.67;1.10;;;25.30;92.30;;;;;;5071995;28;20471;-86
2022/03/13 02:50:02;;;;;;;3.67;1.10;;;25.40;92.20;;;;;;5072451;28;20378;-89
2022/03/13 02:52:29;;;;;;;4.65;1.20;;;25.50;91.80;;;;;;5072717;28;20447;-84
2022/03/13 02:54:56;;;;;;;4.90;1.30;;;25.60;92.00;;;;;;5069950;28;20414;-87
2022/03/13 02:57:23;;;;;;;3.65;1.20;;;25.70;91.90;;;;;;5068978;28;20394;-86
2022/03/13 02:59:50;;;;;;;4.05;1.20;;;26.00;90.90;;;;;;5068040;28;20389;-87
2022/03/13 03:02:18;;;;;;;3.10;1.30;;;26.10;90.20;;;;;;5049980;28;20391;-89
2022/03/13 03:04:48;;;;;;;3.15;1.42;;;26.20;89.40;;;;;;5049011;28;20371;-88
2022/03/13 03:07:16;;;;;;;4.43;1.37;;;26.60;89.00;;;;;;5049577;28;20376;-85
2022/03/13 03:09:43;;;;;;;4.15;1.40;;;27.20;84.60;;;;;;5051757;28;20383;-92
2022/03/13 03:12:10;;;;;;;3.83;1.50;;;28.00;81.80;;;;;;5066881;28;20390;-93
2022/03/13 03:14:39;;;;;;;3.33;1.63;;;29.10;78.80;;;;;;5063781;28;20388;-85
2022/03/13 03:17:08;;;;;;;3.30;1.40;;;30.30;72.60;;;;;;5051957;28;20410;-94
2022/03/13 03:19:36;;;;;;;3.35;1.60;;;31.20;68.50;;;;;;5054582;28;20382;-95
2022/03/13 03:22:08;;;;;;;4.53;1.43;;;32.50;62.30;;;;;;5056678;28;20781;-94
2022/03/13 03:24:35;;;;;;;4.13;1.40;;;32.80;60.70;;;;;;5067484;28;20417;-88
2022/03/13 03:27:03;;;;;;;3.40;1.40;;;33.00;58.60;;;;;;5068706;28;20409;-88
2022/03/13 03:29:30;;;;;;;2.47;1.30;;;33.70;57.10;;;;;;5060792;28;20387;-90
2022/03/13 03:31:58;;;;;;;2.58;1.23;;;33.70;56.30;;;;;;5050527;28;20428;-81
2022/03/13 03:34:28;;;;;;;4.47;1.70;;;33.20;57.00;;;;;;5049795;28;20887;-84
2022/03/13 03:36:58;;;;;;;3.45;1.50;;;32.70;57.40;;;;;;5032010;28;20428;-88
2022/03/13 03:39:27;;;;;;;2.40;1.35;;;32.00;58.10;;;;;;5058971;28;20894;-82
2022/03/13 03:41:55;;;;;;;4.25;1.55;;;31.10;60.40;;;;;;5055080;28;20386;-86
2022/03/13 03:44:23;;;;;;;3.50;1.50;;;30.70;60.50;;;;;;5070294;28;20374;-88
2022/03/13 03:46:52;;;;;;;3.05;1.35;;;30.40;62.80;;;;;;5067436;28;20386;-89
2022/03/13 03:49:19;;;;;;;4.32;1.52;;;30.40;61.70;;;;;;5067362;28;20861;-79
2022/03/13 03:51:46;;;;;;;4.45;1.40;;;30.00;63.10;;;;;;5066679;28;20647;-84
2022/03/13 03:54:14;;;;;;;4.05;1.70;;;29.30;64.10;;;;;;5067110;28;20453;-78
2022/03/13 03:56:41;;;;;;;3.72;1.60;;;28.80;67.20;;;;;;5067018;28;20403;-90
2022/03/13 03:59:09;;;;;;;4.00;1.60;;;28.40;70.40;;;;;;5067256;28;20369;-87
2022/03/13 04:01:41;;;;;;;3.75;1.70;;;28.20;73.00;;;;;;5067114;28;20441;-83
2022/03/13 04:04:09;;;;;;;4.95;1.60;;;28.90;72.10;;;;;;5067115;28;20379;-82
2022/03/13 04:06:40;;;;;;;4.22;1.60;;;30.90;68.30;;;;;;5067706;28;20938;-88
2022/03/13 04:09:08;;;;;;;5.15;1.70;;;31.50;65.10;;;;;;5067132;28;20378;-78
2022/03/13 04:11:36;;;;;;;3.92;1.70;;;31.30;64.40;;;;;;5067356;28;20366;-86
2022/03/13 04:14:04;;;;;;;4.88;1.60;;;31.00;64.20;;;;;;5067221;28;20799;-87
2022/03/13 04:16:32;;;;;;;2.50;1.23;;;30.10;66.40;;;;;;5071236;28;20451;-84
2022/03/13 04:18:58;;;;;;;2.67;1.20;;;29.20;70.90;;;;;;5073600;28;20393;-81
2022/03/13 04:21:26;;;;;;;3.40;1.10;;;28.60;74.80;;;;;;5072980;28;20412;-90
2022/03/13 04:23:53;;;;;;;3.08;1.15;;;28.30;76.90;;;;;;5067449;28;20381;-82
2022/03/13 04:26:25;;;;;;;2.78;1.08;;;28.40;78.10;;;;;;5067257;28;20379;-89
2022/03/13 04:28:51;;;;;;;2.13;1.20;;;29.60;76.20;;;;;;5067516;28;20738;-91
2022/03/13 04:31:19;;;;;;;3.70;1.17;;;31.10;71.20;;;;;;5066721;28;20408;-85
2022/03/13 04:33:47;;;;;;;2.77;1.00;;;32.40;66.10;;;;;;5066968;28;20888;-90
2022/03/13 04:36:17;;;;;;;3.43;1.10;;;32.90;62.50;;;;;;5066378;28;20385;-79
2022/03/13 04:38:44;;;;;;;3.17;1.00;;;33.30;61.90;;;;;;5066708;28;20382;-87
2022/03/13 04:41:11;;;;;;;2.83;1.00;;;33.50;60.80;;;;;;5066890;28;20378;-86
2022/03/13 04:43:38;;;;;;;3.03;1.10;;;33.90;60.50;;;;;;5066910;28;20378;-88
2022/03/13 04:46:06;;;;;;;2.03;1.10;;;33.90;60.50;;;;;;5066739;28;20381;-92
2022/03/13 04:48:34;;;;;;;1.92;0.98;;;34.10;59.20;;;;;;5070913;28;20460;-87
2022/03/13 04:51:02;;;;;;;3.13;0.97;;;32.10;61.70;;;;;;5064197;28;20757;-82
2022/03/13 04:53:29;;;;;;;2.33;0.98;;;30.20;65.70;;;;;;5051435;28;20375;-86
2022/03/13 04:55:56;;;;;;;3.17;1.20;;;28.60;71.70;;;;;;5050780;28;20466;-86
2022/03/13 04:58:24;;;;;;;2.90;1.10;;;27.50;76.90;;;;;;5053073;28;20387;-84
2022/03/13 05:00:51;;;;;;;3.85;1.20;;;26.90;81.80;;;;;;5053653;28;20380;-80
2022/03/13 05:03:19;;;;;;;3.05;1.00;;;26.60;84.30;;;;;;5035665;28;20759;-91
2022/03/13 05:05:46;;;;;;;4.53;1.00;;;27.10;87.10;;;;;;5051803;28;20429;-78
2022/03/13 05:08:15;;;;;;;3.03;1.10;;;28.60;80.40;;;;;;5050358;28;20387;-81
2022/03/13 05:10:47;;;;;;;2.10;0.90;;;29.70;75.60;;;;;;5048937;28;20441;-91
2022/03/13 05:13:16;;;;;;;2.10;1.00;;;29.60;72.00;;;;;;5037826;28;20389;-93
2022/03/13 05:15:45;;;;;;;4.65;1.00;;;28.70;72.50;;;;;;5039553;28;20390;-88
2022/03/13 05:18:12;;;;;;;2.63;1.10;;;27.90;75.50;;;;;;5054100;28;20801;-92
2022/03/13 05:20:40;;;;;;;3.13;1.17;;;27.30;77.80;;;;;;5037561;28;20409;-93
2022/03/13 05:23:08;;;;;;;4.13;1.00;;;26.80;78.40;;;;;;5052895;28;20418;-87
2022/03/13 05:25:36;;;;;;;3.45;1.20;;;26.50;82.20;;;;;;5055017;28;20371;-94
2022/03/13 05:28:05;;;;;;;4.43;1.20;;;26.40;85.00;;;;;;5026611;28;20394;-93
2022/03/13 05:30:32;;;;;;;3.17;1.00;;;26.10;88.00;;;;;;5046061;28;20421;-94
2022/03/13 05:33:00;;;;;;;3.28;1.25;;;26.10;86.10;;;;;;5049702;28;20898;-91
2022/03/13 05:35:28;;;;;;;2.58;0.90;;;26.10;86.40;;;;;;5034267;28;20386;-89
2022/03/13 05:37:55;;;;;;;2.72;0.93;;;26.50;87.20;;;;;;5034697;28;21069;-80
2022/03/13 05:40:23;;;;;;;3.28;1.00;;;27.20;83.50;;;;;;5051050;28;20466;-93
2022/03/13 05:42:57;;;;;;;4.97;1.10;;;27.40;80.40;;;;;;5039767;28;20425;-90
2022/03/13 05:45:26;;;;;;;2.20;1.00;;;27.10;81.50;;;;;;5034032;28;20405;-86
2022/03/13 05:47:54;;;;;;;2.88;0.98;;;26.80;83.60;;;;;;5036265;28;20386;-84
2022/03/13 05:50:23;;;;;;;3.25;1.13;;;27.80;81.00;;;;;;5013382;28;20393;-91
2022/03/13 05:52:53;;;;;;;2.03;0.90;;;28.40;78.40;;;;;;5059379;28;20396;-82
2022/03/13 05:55:20;;;;;;;4.18;1.23;;;28.70;75.40;;;;;;5070836;28;20385;-89
2022/03/13 05:57:47;;;;;;;2.90;1.00;;;28.40;76.10;;;;;;5055909;28;20510;-92
2022/03/13 06:00:16;;;;;;;3.10;1.00;;;28.10;77.50;;;;;;5060763;28;20386;-86
2022/03/13 06:02:47;;;;;;;3.70;1.07;;;27.60;78.40;;;;;;5069630;28;20408;-91
2022/03/13 06:05:17;;;;;;;2.70;1.00;;;27.10;79.50;;;;;;5067971;28;20393;-85
2022/03/13 06:07:48;;;;;;;3.42;1.00;;;27.40;82.00;;;;;;5069059;28;20812;-81
2022/03/13 06:10:15;;;;;;;3.45;0.82;;;28.10;77.80;;;;;;5069828;28;20416;-88
2022/03/13 06:12:42;;;;;;;3.45;1.00;;;28.80;75.60;;;;;;5070824;28;20370;-93
2022/03/13 06:15:14;;;;;;;2.78;0.80;;;29.80;71.90;;;;;;5066596;28;20390;-89
2022/03/13 06:17:47;;;;;;;2.90;0.90;;;30.70;69.00;;;;;;5068763;28;20492;-88
2022/03/13 06:20:16;;;;;;;2.38;1.00;;;31.60;66.00;;;;;;5066063;28;20493;-93
2022/03/13 06:22:46;;;;;;;2.97;0.95;;;31.70;65.30;;;;;;5064534;28;20408;-91
2022/03/13 06:25:15;;;;;;;4.38;1.10;;;31.60;65.10;;;;;;5069698;28;20378;-89
2022/03/13 06:27:43;;;;;;;3.15;1.10;;;31.60;64.90;;;;;;5057834;28;20443;-93
2022/03/13 06:30:16;;;;;;;2.00;1.10;;;31.70;64.40;;;;;;5069450;28;20405;-81
2022/03/13 06:32:45;;;;;;;3.33;1.50;;;31.90;63.90;;;;;;5062269;28;20424;-92
2022/03/13 06:35:13;;;;;;;2.58;1.00;;;31.80;63.10;;;;;;5069729;28;20370;-90
2022/03/13 06:37:40;;;;;;;2.65;1.10;;;32.00;63.10;;;;;;5066367;28;21031;-83
2022/03/13 06:40:09;;;;;;;2.25;0.90;;;32.30;63.20;;;;;;5070346;28;20404;-83
2022/03/13 06:42:36;;;;;;;2.88;1.00;;;32.30;62.20;;;;;;5071391;28;20420;-84
2022/03/13 06:45:04;;;;;;;3.03;1.08;;;31.20;64.10;;;;;;5067999;28;20370;-89
2022/03/13 06:47:31;;;;;;;2.08;1.08;;;30.60;67.30;;;;;;5066389;28;20394;-90
2022/03/13 06:49:59;;;;;;;2.85;1.30;;;30.70;68.00;;;;;;5068209;28;20761;-92
2022/03/13 06:52:26;;;;;;;2.60;1.20;;;31.20;65.90;;;;;;5067574;28;20400;-89
2022/03/13 06:54:53;;;;;;;1.45;0.80;;;31.50;64.70;;;;;;5068593;28;20388;-87
2022/03/13 06:57:20;;;;;;;2.40;1.00;;;31.60;63.90;;;;;;5069141;28;20406;-89
2022/03/13 06:59:47;;;;;;;2.53;1.05;;;31.40;63.60;;;;;;5070646;28;20366;-79
2022/03/13 07:02:14;;;;;;;2.28;1.00;;;31.30;64.20;;;;;;5068350;28;20375;-86
2022/03/13 07:04:41;;;;;;;1.70;0.90;;;31.10;65.00;;;;;;5069366;28;20374;-87
2022/03/13 07:07:08;;;;;;;3.20;1.00;;;30.90;65.30;;;;;;5067798;28;20392;-85
2022/03/13 07:09:35;;;;;;;2.47;0.90;;;30.60;66.30;;;;;;5071258;28;20476;-78
2022/03/13 07:12:04;;;;;;;3.20;0.90;;;30.50;66.50;;;;;;5069204;28;20382;-89
2022/03/13 07:14:32;;;;;;;3.30;1.00;;;30.20;67.50;;;;;;5067929;28;20406;-84
2022/03/13 07:16:59;;;;;;;2.42;0.90;;;30.00;67.40;;;;;;5068831;28;20397;-86
2022/03/13 07:19:26;;;;;;;3.83;1.00;;;30.10;68.00;;;;;;5065973;28;20389;-81
2022/03/13 07:21:53;;;;;;;2.83;1.00;;;30.20;67.70;;;;;;5028467;28;20401;-88
2022/03/13 07:24:20;;;;;;;2.53;1.10;;;30.00;68.00;;;;;;5069487;28;20370;-84
2022/03/13 07:26:47;;;;;;;1.95;0.80;;;29.90;68.00;;;;;;5069678;28;20413;-86
2022/03/13 07:29:14;;;;;;;4.03;0.93;;;29.60;68.20;;;;;;5059158;28;20399;-85
2022/03/13 07:31:41;;;;;;;2.17;1.08;;;29.30;68.30;;;;;;5064167;28;20394;-91
2022/03/13 07:34:09;;;;;;;3.27;1.17;;;28.80;69.80;;;;;;5057277;28;20753;-87
2022/03/13 07:36:36;;;;;;;3.13;1.00;;;28.10;71.90;;;;;;5068698;28;20480;-94
2022/03/13 07:39:04;;;;;;;3.35;0.95;;;27.30;75.10;;;;;;5066643;28;20508;-82
2022/03/13 07:41:31;;;;;;;2.17;0.93;;;26.50;78.70;;;;;;5047091;28;20781;-89
2022/03/13 07:43:58;;;;;;;2.80;1.00;;;25.90;82.80;;;;;;5067376;28;20386;-88
2022/03/13 07:46:25;;;;;;;3.07;1.10;;;25.30;87.70;;;;;;5068952;28;20715;-90
2022/03/13 07:48:52;;;;;;;2.47;1.05;;;24.90;90.60;;;;;;5068952;28;20393;-80
2022/03/13 07:51:19;;;;;;;2.60;1.08;;;24.60;92.50;;;;;;5059508;28;20893;-83
2022/03/13 07:53:46;;;;;;;3.67;1.00;;;24.40;94.40;;;;;;5068311;28;20443;-82
2022/03/13 07:56:15;;;;;;;3.70;1.00;;;24.20;96.20;;;;;;5063737;28;20397;-85
2022/03/13 07:58:42;;;;;;;3.30;1.02;;;24.10;97.20;;;;;;5057867;28;20399;-82
2022/03/13 08:01:09;;;;;;;2.13;0.90;;;23.90;97.50;;;;;;5079709;28;20485;-88
2022/03/13 08:03:37;;;;;;;5.13;1.00;;;23.80;97.40;;;;;;5067418;28;20450;-82
2022/03/13 08:06:04;;;;;;;4.18;0.98;;;23.70;98.00;;;;;;5055390;28;20455;-88
2022/03/13 08:08:31;;;;;;;4.40;1.17;;;23.50;98.80;;;;;;5070505;28;20469;-89
2022/03/13 08:10:59;;;;;;;2.00;0.90;;;23.30;99.60;;;;;;5069382;28;20421;-89
2022/03/13 08:13:26;;;;;;;4.93;1.20;;;23.20;99.90;;;;;;5068429;28;20448;-81
2022/03/13 08:15:53;;;;;;;4.32;0.93;;;23.10;99.90;;;;;;5070367;28;20397;-87
2022/03/13 08:18:23;;;;;;;2.40;0.90;;;22.90;99.90;;;;;;5071585;28;20382;-92
2022/03/13 08:20:53;;;;;;;4.97;1.10;;;22.70;99.90;;;;;;5070157;28;20386;-82
2022/03/13 08:23:21;;;;;;;4.22;0.90;;;22.60;99.90;;;;;;5077718;28;20389;-80
2022/03/13 08:25:48;;;;;;;3.60;1.00;;;22.50;99.90;;;;;;5076867;28;20454;-86
2022/03/13 08:28:15;;;;;;;5.22;1.15;;;22.40;99.90;;;;;;5074456;28;20406;-90
2022/03/13 08:30:44;;;;;;;4.32;1.00;;;22.20;99.90;;;;;;5070524;28;20905;-82
2022/03/13 08:33:11;;;;;;;4.28;1.15;;;22.20;99.90;;;;;;5076800;28;20481;-77
2022/03/13 08:35:38;;;;;;;2.80;1.00;;;22.10;99.90;;;;;;5082100;28;20862;-76
2022/03/13 08:38:04;;;;;;;3.80;0.80;;;22.00;99.90;;;;;;5061260;28;20487;-94
2022/03/13 08:40:31;;;;;;;2.28;0.90;;;22.00;99.90;;;;;;5071892;28;20402;-90
2022/03/13 08:42:58;;;;;;;2.60;1.00;;;22.00;99.90;;;;;;5075941;28;20508;-94
2022/03/13 08:45:26;;;;;;;4.07;0.88;;;22.00;99.90;;;;;;5058780;28;20391;-84
2022/03/13 08:47:53;;;;;;;3.78;1.00;;;22.00;99.90;;;;;;5071074;28;20378;-79
2022/03/13 08:50:20;;;;;;;3.03;0.90;;;21.90;99.90;;;;;;5069096;28;20791;-92
2022/03/13 08:52:47;;;;;;;2.65;0.90;;;21.90;99.90;;;;;;5039642;28;20428;-86
2022/03/13 08:55:15;;;;;;;4.30;1.00;;;21.90;99.90;;;;;;5048908;28;20384;-90
2022/03/13 08:57:44;;;;;;;2.30;0.88;;;21.80;99.90;;;;;;5050181;28;20413;-79
2022/03/13 09:00:14;;;;;;;4.82;0.90;;;21.80;99.90;;;;;;5043506;28;20384;-91
2022/03/13 09:02:42;;;;;;;3.17;1.10;;;21.80;99.90;;;;;;5045350;28;20400;-84
2022/03/13 09:05:09;;;;;;;4.82;1.20;;;21.70;99.90;;;;;;5044398;28;20454;-82
2022/03/13 09:07:36;;;;;;;3.65;1.02;;;21.70;99.90;;;;;;5048243;28;20387;-85
2022/03/13 09:10:08;;;;;;;3.63;0.90;;;21.70;99.90;;;;;;5046606;28;20390;-83
2022/03/13 09:12:36;;;;;;;4.13;1.10;;;21.70;99.90;;;;;;5046389;28;20391;-88
2022/03/13 09:15:05;;;;;;;2.90;1.10;;;21.70;99.90;;;;;;5046450;28;20379;-90
2022/03/13 09:17:34;;;;;;;2.53;1.00;;;21.70;99.90;;;;;;5046806;28;20491;-80
2022/03/13 09:20:03;;;;;;;3.33;1.10;;;21.70;99.90;;;;;;5043801;28;20737;-88
2022/03/13 09:22:30;;;;;;;4.15;1.10;;;21.80;99.90;;;;;;5030100;28;20466;-91
2022/03/13 09:24:59;;;;;;;4.05;1.10;;;21.80;99.90;;;;;;5047306;28;20383;-93
2022/03/13 09:27:28;;;;;;;3.53;1.00;;;21.80;99.90;;;;;;5050760;28;20395;-80
2022/03/13 09:29:57;;;;;;;3.45;1.10;;;21.80;99.90;;;;;;5044151;28;20747;-88
2022/03/13 09:32:25;;;;;;;3.40;1.10;;;21.80;99.90;;;;;;5046157;28;21106;-90
2022/03/13 09:34:56;;;;;;;2.73;1.10;;;21.70;99.90;;;;;;5033800;28;20482;-89
2022/03/13 09:37:23;;;;;;;3.65;1.10;;;21.70;99.90;;;;;;5041685;28;20414;-86
2022/03/13 09:39:54;;;;;;;5.25;1.08;;;21.70;99.90;;;;;;5052367;28;20874;-92
2022/03/13 09:42:21;;;;;;;3.75;1.10;;;21.60;99.90;;;;;;5040533;28;20423;-82
2022/03/13 09:44:48;;;;;;;3.07;0.93;;;21.60;99.90;;;;;;5050000;28;20376;-84
2022/03/13 09:47:15;;;;;;;2.93;1.10;;;21.60;99.90;;;;;;5049491;28;20384;-85
2022/03/13 09:49:42;;;;;;;4.68;1.20;;;21.60;99.90;;;;;;5055511;28;20391;-85
2022/03/13 09:52:10;;;;;;;3.60;1.20;;;21.60;99.90;;;;;;5067764;28;20455;-80
2022/03/13 09:54:37;;;;;;;5.35;1.17;;;21.50;99.90;;;;;;5065441;28;20423;-94
2022/03/13 09:57:05;;;;;;;5.68;1.20;;;21.50;99.90;;;;;;5064632;28;20408;-77
2022/03/13 09:59:34;;;;;;;3.38;1.00;;;21.50;99.90;;;;;;5076393;28;20408;-78
2022/03/13 10:02:05;;;;;;;3.83;1.00;;;21.50;99.90;;;;;;5077273;28;20441;-84
2022/03/13 10:04:32;;;;;;;4.38;1.10;;;21.40;99.90;;;;;;5071446;28;20405;-82
2022/03/13 10:07:11;;;;;;;2.97;0.90;;;21.40;99.90;;;;;;5050940;28;20884;-95
2022/03/13 10:09:46;;;;;;;2.63;1.10;;;21.40;99.90;;;;;;5037250;28;20803;-93
2022/03/13 10:12:22;;;;;;;5.43;1.20;;;21.40;99.90;;;;;;5060366;28;20420;-88
2022/03/13 10:15:07;;;;;;;4.22;1.50;;;21.40;99.90;;;;;;5066239;28;20374;-80
2022/03/13 10:17:36;;;;;;;3.53;1.20;;;21.20;99.90;;;;;;5069075;28;20834;-79
2022/03/13 10:20:13;;;;;;;4.50;1.23;;;21.20;99.90;;;;;;5067940;28;20373;-80
2022/03/13 10:22:42;;;;;;;6.50;1.40;;;21.00;99.90;;;;;;5064016;28;20758;-82
2022/03/13 10:25:13;;;;;;;5.25;1.40;;;20.90;99.90;;;;;;5068537;28;20469;-80
2022/03/13 10:27:43;;;;;;;5.22;1.27;;;20.80;99.90;;;;;;5065695;28;20746;-91
2022/03/13 10:30:10;;;;;;;3.60;1.10;;;20.70;99.90;;;;;;5069219;28;20431;-84
2022/03/13 10:32:38;;;;;;;3.30;1.15;;;20.10;99.90;;;;;;5059931;28;20384;-80
2022/03/13 10:35:06;;;;;;;4.63;1.30;;;20.80;99.90;;;;;;5059661;28;20416;-87
2022/03/13 10:37:34;;;;;;;5.18;1.13;;;20.80;99.90;;;;;;5062680;28;20402;-80
2022/03/13 10:40:15;;;;;;;3.92;1.30;;;20.80;99.90;;;;;;5070079;28;20398;-89
2022/03/13 10:42:46;;;;;;;5.03;1.25;;;20.80;99.90;;;;;;5064688;28;20390;-79
2022/03/13 10:45:38;;;;;;;5.70;1.50;;;20.70;99.90;;;;;;5054268;28;20397;-79
2022/03/13 10:48:37;;;;;;;6.50;1.75;;;20.60;99.90;;;;;;5057660;28;20384;-86
2022/03/13 10:51:12;;;;;;;9.88;2.30;;;20.50;99.90;;;;;;5070661;28;20437;-82
2022/03/13 10:53:47;;;;;;;4.17;1.90;;;20.50;99.90;;;;;;5071528;28;20413;-84
2022/03/13 10:56:15;;;;;;;8.60;1.73;;;20.50;99.90;;;;;;5062150;28;20483;-79
2022/03/13 10:58:48;;;;;;;6.38;1.75;;;20.40;99.90;;;;;;5050029;28;20819;-83
2022/03/13 11:01:21;;;;;;;6.13;1.40;;;20.40;99.90;;;;;;5049373;28;20376;-81
2022/03/13 11:03:53;;;;;;;4.38;1.30;;;20.40;99.90;;;;;;5052922;28;20371;-81
2022/03/13 11:06:22;;;;;;;4.30;1.42;;;20.40;99.90;;;;;;5057536;28;20542;-81
2022/03/13 11:08:53;;;;;;;4.77;1.60;;;20.30;99.90;;;;;;5075005;28;20769;-81
2022/03/13 11:11:21;;;;;;;4.63;1.52;;;20.30;99.90;;;;;;5082298;28;20395;-79
2022/03/13 11:13:54;;;;;;;4.43;1.50;;;20.20;99.90;;;;;;5086794;28;20376;-88
2022/03/13 11:16:32;;;;;;;7.47;2.67;;;20.20;99.90;;;;;;5046101;28;20392;-80
2022/03/13 11:19:06;;;;;;;7.05;2.63;;;20.20;99.90;;;;;;5058632;28;20508;-80
2022/03/13 11:21:37;;;;;;;6.53;2.30;;;20.20;99.90;;;;;;5057298;28;20387;-83
2022/03/13 11:24:08;;;;;;;7.40;1.60;;;20.20;99.90;;;;;;5055208;28;20849;-90
2022/03/13 11:26:40;;;;;;;5.90;1.63;;;20.20;99.90;;;;;;5057068;28;20386;-77
2022/03/13 11:29:09;;;;;;;6.65;1.40;;;20.20;99.90;;;;;;5054890;28;20393;-86
2022/03/13 11:31:38;;;;;;;4.97;1.27;;;21.30;99.90;;;;;;5051103;28;20382;-78
2022/03/13 11:34:21;;;;;;;3.83;1.15;;;20.20;99.90;;;;;;5036975;28;20970;-83
2022/03/13 11:36:50;;;;;;;3.90;1.13;;;20.20;99.90;;;;;;5054690;28;20427;-90
2022/03/13 11:39:31;;;;;;;3.88;1.10;;;20.20;99.90;;;;;;5062877;28;20386;-92
2022/03/13 11:42:00;;;;;;;2.88;0.90;;;20.20;99.90;;;;;;5057120;28;20390;-88
2022/03/13 11:44:32;;;;;;;4.30;1.10;;;20.20;99.90;;;;;;5054936;28;20469;-86
2022/03/13 11:47:01;;;;;;;3.28;1.00;;;20.20;99.90;;;;;;5059502;28;20409;-90
2022/03/13 11:49:30;;;;;;;3.50;1.00;;;20.10;99.90;;;;;;5053785;28;20463;-87
2022/03/13 11:52:12;;;;;;;4.32;1.02;;;20.10;99.90;;;;;;5035217;28;21017;-83
2022/03/13 11:54:56;;;;;;;4.28;1.20;;;20.10;99.90;;;;;;5035844;28;20395;-77
2022/03/13 11:57:24;;;;;;;3.47;1.10;;;20.10;99.90;;;;;;5034527;28;20421;-86
2022/03/13 12:00:12;;;;;;;4.78;1.05;;;20.00;99.90;;;;;;5023499;28;20388;-91
2022/03/13 12:02:42;;;;;;;5.10;1.10;;;19.80;99.90;;;;;;5033332;28;20399;-79
2022/03/13 12:05:28;;;;;;;5.47;1.23;;;19.80;99.90;;;;;;5034284;28;20407;-78
2022/03/13 12:08:08;;;;;;;5.95;1.30;;;19.70;99.90;;;;;;5037411;28;20482;-86
2022/03/13 12:10:43;;;;;;;4.17;1.10;;;19.80;99.90;;;;;;5037321;28;20392;-82
2022/03/13 12:13:15;;;;;;;3.72;1.10;;;19.70;99.90;;;;;;5033993;28;20379;-76
2022/03/13 12:15:44;;;;;;;3.80;1.10;;;19.70;99.90;;;;;;5035800;28;20385;-76
2022/03/13 12:18:32;;;;;;;5.47;1.48;;;19.70;99.90;;;;;;5044389;28;20404;-77
2022/03/13 12:21:11;;;;;;;4.45;1.20;;;19.70;99.90;;;;;;5027280;28;20460;-79
2022/03/13 12:23:39;;;;;;;7.57;1.27;;;19.70;99.90;;;;;;5027475;28;20373;-81
2022/03/13 12:26:22;;;;;;;5.37;1.33;;;19.70;99.90;;;;;;5036016;28;20373;-77
2022/03/13 12:28:57;;;;;;;7.00;1.50;;;19.80;99.90;;;;;;5034618;28;20444;-82
2022/03/13 12:31:26;;;;;;;9.27;1.80;;;19.90;99.90;;;;;;5027590;28;20424;-80
2022/03/13 12:33:55;;;;;;;8.70;1.60;;;19.90;99.90;;;;;;5039307;28;20462;-76
2022/03/13 12:36:33;;;;;;;7.15;1.45;;;19.90;99.90;;;;;;5046828;28;20403;-76
2022/03/13 12:39:00;;;;;;;10.03;1.80;;;19.90;99.90;;;;;;5047133;28;20387;-78
2022/03/13 12:41:29;;;;;;;9.10;1.52;;;19.90;99.90;;;;;;5046504;28;20897;-78
2022/03/13 12:44:04;;;;;;;7.20;1.55;;;19.80;99.90;;;;;;5039800;28;20389;-76
2022/03/13 12:46:32;;;;;;;5.75;1.63;;;19.80;99.90;;;;;;5034172;28;20386;-76
2022/03/13 12:49:04;;;;;;;6.32;1.60;;;19.70;99.90;;;;;;5031774;28;21076;-88
2022/03/13 12:51:50;;;;;;;4.57;1.30;;;19.70;99.90;;;;;;5028814;28;20480;-77
2022/03/13 12:54:23;;;;;;;5.07;1.50;;;19.80;99.90;;;;;;5026269;28;20421;-83
2022/03/13 12:56:55;;;;;;;6.90;1.70;;;19.90;99.90;;;;;;5039429;28;20392;-85
2022/03/13 12:59:32;;;;;;;5.68;1.63;;;19.90;99.90;;;;;;5045602;28;20804;-86